sensor_id;sensor_type;location;lat;lon;timestamp;P1;durP1;ratioP1;P2;durP2;ratioP2
16673;SDS011;8450;52.654;10.326;2022-08-11T05:12:08;4.70;;;3.83;;
16673;SDS011;8450;52.654;10.326;2022-08-11T05:14:46;4.03;;;3.63;;
16673;SDS011;8450;52.654;10.326;2022-08-11T05:17:37;3.57;;;3.23;;
16673;SDS011;8450;52.654;10.326;2022-08-11T05:20:45;4.90;;;4.00;;
16673;SDS011;8450;52.654;10.326;2022-08-11T05:23:33;11.57;;;3.73;;
16673;SDS011;8450;52.654;10.326;2022-08-11T05:26:18;4.77;;;4.30;;
16673;SDS011;8450;52.654;10.326;2022-08-11T05:29:04;4.23;;;3.80;;
16673;SDS011;8450;52.654;10.326;2022-08-11T05:32:10;4.80;;;3.83;;
16673;SDS011;8450;52.654;10.326;2022-08-11T05:34:58;5.27;;;3.67;;
16673;SDS011;8450;52.654;10.326;2022-08-11T05:39:59;4.53;;;4.13;;
16673;SDS011;8450;52.654;10.326;2022-08-11T05:43:06;6.50;;;3.80;;
16673;SDS011;8450;52.654;10.326;2022-08-11T05:45:56;4.10;;;3.70;;
16673;SDS011;8450;52.654;10.326;2022-08-11T05:48:45;6.70;;;4.50;;
16673;SDS011;8450;52.654;10.326;2022-08-11T05:51:32;4.13;;;3.53;;
16673;SDS011;8450;52.654;10.326;2022-08-11T05:54:18;6.00;;;4.37;;
16673;SDS011;8450;52.654;10.326;2022-08-11T05:57:03;4.43;;;3.80;;
16673;SDS011;8450;52.654;10.326;2022-08-11T05:59:30;7.40;;;4.43;;
16673;SDS011;8450;52.654;10.326;2022-08-11T06:02:00;4.20;;;3.90;;
16673;SDS011;8450;52.654;10.326;2022-08-11T06:04:28;5.03;;;3.90;;
16673;SDS011;8450;52.654;10.326;2022-08-11T06:06:56;7.50;;;3.63;;
16673;SDS011;8450;52.654;10.326;2022-08-11T06:12:27;5.10;;;3.80;;
16673;SDS011;8450;52.654;10.326;2022-08-11T06:14:56;4.90;;;4.23;;
16673;SDS011;8450;52.654;10.326;2022-08-11T06:17:28;4.93;;;4.03;;
16673;SDS011;8450;52.654;10.326;2022-08-11T06:20:06;4.30;;;3.90;;
16673;SDS011;8450;52.654;10.326;2022-08-11T06:22:37;4.47;;;4.07;;
16673;SDS011;8450;52.654;10.326;2022-08-11T06:25:06;9.00;;;3.80;;
16673;SDS011;8450;52.654;10.326;2022-08-11T06:27:34;3.83;;;3.43;;
16673;SDS011;8450;52.654;10.326;2022-08-11T06:30:02;4.33;;;3.93;;
16673;SDS011;8450;52.654;10.326;2022-08-11T06:32:38;5.60;;;4.33;;
16673;SDS011;8450;52.654;10.326;2022-08-11T06:40:53;6.37;;;4.07;;
16673;SDS011;8450;52.654;10.326;2022-08-11T06:43:52;7.20;;;3.83;;
16673;SDS011;8450;52.654;10.326;2022-08-11T06:46:25;4.50;;;4.10;;
16673;SDS011;8450;52.654;10.326;2022-08-11T06:48:57;8.33;;;4.53;;
16673;SDS011;8450;52.654;10.326;2022-08-11T06:51:26;7.57;;;3.67;;
16673;SDS011;8450;52.654;10.326;2022-08-11T06:53:53;4.83;;;3.60;;
16673;SDS011;8450;52.654;10.326;2022-08-11T06:56:22;4.60;;;3.67;;
16673;SDS011;8450;52.654;10.326;2022-08-11T06:59:09;6.20;;;4.03;;
16673;SDS011;8450;52.654;10.326;2022-08-11T07:13:42;4.37;;;3.83;;
16673;SDS011;8450;52.654;10.326;2022-08-11T07:16:29;4.53;;;4.10;;
16673;SDS011;8450;52.654;10.326;2022-08-11T07:19:00;3.80;;;3.40;;
16673;SDS011;8450;52.654;10.326;2022-08-11T07:21:46;8.87;;;3.63;;
16673;SDS011;8450;52.654;10.326;2022-08-11T07:24:32;3.60;;;3.30;;
16673;SDS011;8450;52.654;10.326;2022-08-11T07:27:20;4.30;;;3.70;;
16673;SDS011;8450;52.654;10.326;2022-08-11T07:30:07;4.00;;;3.63;;
16673;SDS011;8450;52.654;10.326;2022-08-11T07:32:36;4.20;;;3.80;;
16673;SDS011;8450;52.654;10.326;2022-08-11T07:35:11;5.13;;;4.13;;
16673;SDS011;8450;52.654;10.326;2022-08-11T07:37:41;4.87;;;4.10;;
16673;SDS011;8450;52.654;10.326;2022-08-11T07:40:11;4.80;;;3.70;;
16673;SDS011;8450;52.654;10.326;2022-08-11T07:42:38;4.63;;;3.47;;
16673;SDS011;8450;52.654;10.326;2022-08-11T07:45:10;4.73;;;4.20;;
16673;SDS011;8450;52.654;10.326;2022-08-11T07:47:55;5.57;;;3.70;;
16673;SDS011;8450;52.654;10.326;2022-08-11T07:50:40;4.57;;;4.00;;
16673;SDS011;8450;52.654;10.326;2022-08-11T07:53:26;7.70;;;4.20;;
16673;SDS011;8450;52.654;10.326;2022-08-11T07:55:54;5.70;;;3.90;;
16673;SDS011;8450;52.654;10.326;2022-08-11T07:58:23;5.07;;;3.90;;
16673;SDS011;8450;52.654;10.326;2022-08-11T08:01:10;4.93;;;4.20;;
16673;SDS011;8450;52.654;10.326;2022-08-11T08:03:55;6.87;;;3.90;;
16673;SDS011;8450;52.654;10.326;2022-08-11T08:06:42;8.17;;;4.10;;
16673;SDS011;8450;52.654;10.326;2022-08-11T08:09:28;4.40;;;4.00;;
16673;SDS011;8450;52.654;10.326;2022-08-11T08:12:16;4.40;;;3.87;;
16673;SDS011;8450;52.654;10.326;2022-08-11T08:15:06;6.90;;;4.07;;
16673;SDS011;8450;52.654;10.326;2022-08-11T08:17:52;5.37;;;3.80;;
16673;SDS011;8450;52.654;10.326;2022-08-11T08:20:26;5.47;;;3.83;;
16673;SDS011;8450;52.654;10.326;2022-08-11T08:22:56;5.03;;;4.07;;
16673;SDS011;8450;52.654;10.326;2022-08-11T08:25:28;7.03;;;4.20;;
16673;SDS011;8450;52.654;10.326;2022-08-11T08:27:57;5.23;;;4.70;;
16673;SDS011;8450;52.654;10.326;2022-08-11T08:30:24;6.90;;;4.13;;
16673;SDS011;8450;52.654;10.326;2022-08-11T08:33:11;4.33;;;3.90;;
16673;SDS011;8450;52.654;10.326;2022-08-11T08:35:50;5.30;;;4.07;;
16673;SDS011;8450;52.654;10.326;2022-08-11T08:38:36;4.43;;;4.03;;
16673;SDS011;8450;52.654;10.326;2022-08-11T08:41:05;4.20;;;3.80;;
16673;SDS011;8450;52.654;10.326;2022-08-11T08:43:32;4.03;;;3.63;;
16673;SDS011;8450;52.654;10.326;2022-08-11T08:46:00;5.60;;;3.90;;
16673;SDS011;8450;52.654;10.326;2022-08-11T08:48:27;4.80;;;4.37;;
16673;SDS011;8450;52.654;10.326;2022-08-11T08:51:02;4.33;;;3.90;;
16673;SDS011;8450;52.654;10.326;2022-08-11T08:53:52;6.30;;;4.80;;
16673;SDS011;8450;52.654;10.326;2022-08-11T08:56:19;6.97;;;4.57;;
16673;SDS011;8450;52.654;10.326;2022-08-11T08:58:52;6.10;;;4.00;;
16673;SDS011;8450;52.654;10.326;2022-08-11T09:01:18;8.83;;;3.97;;
16673;SDS011;8450;52.654;10.326;2022-08-11T09:03:46;5.10;;;4.07;;
16673;SDS011;8450;52.654;10.326;2022-08-11T09:06:13;5.80;;;4.27;;
16673;SDS011;8450;52.654;10.326;2022-08-11T09:08:41;4.80;;;3.90;;
16673;SDS011;8450;52.654;10.326;2022-08-11T09:11:08;4.40;;;4.10;;
16673;SDS011;8450;52.654;10.326;2022-08-11T09:13:54;4.50;;;4.10;;
16673;SDS011;8450;52.654;10.326;2022-08-11T09:16:21;4.10;;;3.67;;
16673;SDS011;8450;52.654;10.326;2022-08-11T09:18:47;9.50;;;3.80;;
16673;SDS011;8450;52.654;10.326;2022-08-11T09:21:13;4.73;;;4.30;;
16673;SDS011;8450;52.654;10.326;2022-08-11T09:23:40;4.53;;;4.00;;
16673;SDS011;8450;52.654;10.326;2022-08-11T09:26:26;5.60;;;4.30;;
16673;SDS011;8450;52.654;10.326;2022-08-11T09:29:10;6.47;;;3.70;;
16673;SDS011;8450;52.654;10.326;2022-08-11T09:31:37;5.60;;;3.80;;
16673;SDS011;8450;52.654;10.326;2022-08-11T09:34:03;9.10;;;3.80;;
16673;SDS011;8450;52.654;10.326;2022-08-11T09:36:28;6.73;;;3.83;;
16673;SDS011;8450;52.654;10.326;2022-08-11T09:39:13;7.93;;;4.23;;
16673;SDS011;8450;52.654;10.326;2022-08-11T09:41:59;6.27;;;3.43;;
16673;SDS011;8450;52.654;10.326;2022-08-11T09:44:26;4.47;;;3.60;;
16673;SDS011;8450;52.654;10.326;2022-08-11T09:47:11;3.70;;;3.40;;
16673;SDS011;8450;52.654;10.326;2022-08-11T09:49:44;4.07;;;3.10;;
16673;SDS011;8450;52.654;10.326;2022-08-11T09:52:10;6.33;;;3.20;;
16673;SDS011;8450;52.654;10.326;2022-08-11T09:54:39;4.13;;;3.20;;
16673;SDS011;8450;52.654;10.326;2022-08-11T09:57:06;3.17;;;2.87;;
16673;SDS011;8450;52.654;10.326;2022-08-11T09:59:51;5.10;;;2.80;;
16673;SDS011;8450;52.654;10.326;2022-08-11T10:02:18;6.47;;;3.23;;
16673;SDS011;8450;52.654;10.326;2022-08-11T10:04:51;3.20;;;2.90;;
16673;SDS011;8450;52.654;10.326;2022-08-11T10:07:39;4.60;;;3.20;;
16673;SDS011;8450;52.654;10.326;2022-08-11T10:10:14;6.15;;;2.72;;
16673;SDS011;8450;52.654;10.326;2022-08-11T10:12:45;3.70;;;2.83;;
16673;SDS011;8450;52.654;10.326;2022-08-11T10:15:18;5.38;;;2.97;;
16673;SDS011;8450;52.654;10.326;2022-08-11T10:21:14;3.90;;;2.65;;
16673;SDS011;8450;52.654;10.326;2022-08-11T10:23:48;4.22;;;2.60;;
16673;SDS011;8450;52.654;10.326;2022-08-11T10:26:35;6.82;;;2.83;;
16673;SDS011;8450;52.654;10.326;2022-08-11T10:29:18;4.50;;;2.83;;
16673;SDS011;8450;52.654;10.326;2022-08-11T10:32:19;3.08;;;2.53;;
16673;SDS011;8450;52.654;10.326;2022-08-11T10:35:06;3.92;;;2.58;;
16673;SDS011;8450;52.654;10.326;2022-08-11T10:37:33;2.63;;;2.20;;
16673;SDS011;8450;52.654;10.326;2022-08-11T10:40:01;4.93;;;2.60;;
16673;SDS011;8450;52.654;10.326;2022-08-11T10:42:29;2.60;;;2.40;;
16673;SDS011;8450;52.654;10.326;2022-08-11T10:45:15;4.65;;;2.50;;
16673;SDS011;8450;52.654;10.326;2022-08-11T10:48:00;3.00;;;2.67;;
16673;SDS011;8450;52.654;10.326;2022-08-11T10:50:28;4.22;;;3.05;;
16673;SDS011;8450;52.654;10.326;2022-08-11T10:53:13;5.05;;;3.20;;
16673;SDS011;8450;52.654;10.326;2022-08-11T10:55:57;3.97;;;2.90;;
16673;SDS011;8450;52.654;10.326;2022-08-11T10:58:42;3.70;;;2.40;;
16673;SDS011;8450;52.654;10.326;2022-08-11T11:01:22;4.45;;;2.70;;
16673;SDS011;8450;52.654;10.326;2022-08-11T11:03:50;3.90;;;2.60;;
16673;SDS011;8450;52.654;10.326;2022-08-11T11:06:20;2.97;;;2.67;;
16673;SDS011;8450;52.654;10.326;2022-08-11T11:09:13;3.85;;;2.70;;
16673;SDS011;8450;52.654;10.326;2022-08-11T11:11:48;5.50;;;2.75;;
16673;SDS011;8450;52.654;10.326;2022-08-11T11:14:35;3.15;;;2.95;;
16673;SDS011;8450;52.654;10.326;2022-08-11T11:17:29;3.10;;;2.80;;
16673;SDS011;8450;52.654;10.326;2022-08-11T11:20:19;3.33;;;3.00;;
16673;SDS011;8450;52.654;10.326;2022-08-11T11:22:50;4.18;;;2.80;;
16673;SDS011;8450;52.654;10.326;2022-08-11T11:25:21;2.92;;;2.63;;
16673;SDS011;8450;52.654;10.326;2022-08-11T11:31:09;5.93;;;2.92;;
16673;SDS011;8450;52.654;10.326;2022-08-11T11:33:51;3.47;;;3.17;;
16673;SDS011;8450;52.654;10.326;2022-08-11T11:36:31;3.00;;;2.70;;
16673;SDS011;8450;52.654;10.326;2022-08-11T11:39:21;3.38;;;2.75;;
16673;SDS011;8450;52.654;10.326;2022-08-11T11:41:50;2.97;;;2.60;;
16673;SDS011;8450;52.654;10.326;2022-08-11T11:44:23;6.30;;;3.13;;
16673;SDS011;8450;52.654;10.326;2022-08-11T11:46:50;3.53;;;2.80;;
16673;SDS011;8450;52.654;10.326;2022-08-11T11:49:17;3.63;;;2.90;;
16673;SDS011;8450;52.654;10.326;2022-08-11T11:51:48;3.92;;;2.63;;
16673;SDS011;8450;52.654;10.326;2022-08-11T11:54:16;3.40;;;2.70;;
16673;SDS011;8450;52.654;10.326;2022-08-11T11:56:47;8.38;;;2.70;;
16673;SDS011;8450;52.654;10.326;2022-08-11T11:59:17;3.33;;;3.10;;
16673;SDS011;8450;52.654;10.326;2022-08-11T12:02:07;3.97;;;3.08;;
16673;SDS011;8450;52.654;10.326;2022-08-11T12:04:41;3.40;;;2.60;;
16673;SDS011;8450;52.654;10.326;2022-08-11T12:07:09;3.53;;;3.13;;
16673;SDS011;8450;52.654;10.326;2022-08-11T12:09:54;2.97;;;2.78;;
16673;SDS011;8450;52.654;10.326;2022-08-11T12:12:21;8.20;;;3.38;;
16673;SDS011;8450;52.654;10.326;2022-08-11T12:15:06;3.35;;;3.05;;
16673;SDS011;8450;52.654;10.326;2022-08-11T12:17:33;4.63;;;3.03;;
16673;SDS011;8450;52.654;10.326;2022-08-11T12:20:00;3.33;;;2.80;;
16673;SDS011;8450;52.654;10.326;2022-08-11T12:22:27;3.53;;;2.50;;
16673;SDS011;8450;52.654;10.326;2022-08-11T12:25:12;3.05;;;2.70;;
16673;SDS011;8450;52.654;10.326;2022-08-11T12:27:57;3.40;;;2.72;;
16673;SDS011;8450;52.654;10.326;2022-08-11T12:30:22;3.42;;;2.60;;
16673;SDS011;8450;52.654;10.326;2022-08-11T12:32:48;3.78;;;3.47;;
16673;SDS011;8450;52.654;10.326;2022-08-11T12:35:14;3.25;;;2.95;;
16673;SDS011;8450;52.654;10.326;2022-08-11T12:37:46;3.03;;;2.78;;
16673;SDS011;8450;52.654;10.326;2022-08-11T12:40:16;3.30;;;3.00;;
16673;SDS011;8450;52.654;10.326;2022-08-11T12:43:06;3.05;;;2.85;;
16673;SDS011;8450;52.654;10.326;2022-08-11T12:45:56;3.55;;;2.97;;
16673;SDS011;8450;52.654;10.326;2022-08-11T12:48:29;3.72;;;3.05;;
16673;SDS011;8450;52.654;10.326;2022-08-11T12:51:18;5.65;;;3.42;;
16673;SDS011;8450;52.654;10.326;2022-08-11T12:54:10;6.72;;;3.15;;
16673;SDS011;8450;52.654;10.326;2022-08-11T12:56:40;5.47;;;2.85;;
16673;SDS011;8450;52.654;10.326;2022-08-11T12:59:28;3.45;;;3.15;;
16673;SDS011;8450;52.654;10.326;2022-08-11T13:02:17;3.95;;;3.05;;
16673;SDS011;8450;52.654;10.326;2022-08-11T13:05:05;3.38;;;2.92;;
16673;SDS011;8450;52.654;10.326;2022-08-11T13:07:33;3.65;;;2.90;;
16673;SDS011;8450;52.654;10.326;2022-08-11T13:10:02;5.68;;;2.80;;
16673;SDS011;8450;52.654;10.326;2022-08-11T13:12:29;4.68;;;2.95;;
16673;SDS011;8450;52.654;10.326;2022-08-11T13:15:17;3.25;;;2.95;;
16673;SDS011;8450;52.654;10.326;2022-08-11T13:17:44;3.63;;;3.03;;
16673;SDS011;8450;52.654;10.326;2022-08-11T13:20:13;3.13;;;2.88;;
16673;SDS011;8450;52.654;10.326;2022-08-11T13:22:44;3.63;;;3.05;;
16673;SDS011;8450;52.654;10.326;2022-08-11T13:25:12;4.07;;;2.90;;
16673;SDS011;8450;52.654;10.326;2022-08-11T13:27:40;3.75;;;3.30;;
16673;SDS011;8450;52.654;10.326;2022-08-11T13:30:07;3.35;;;3.13;;
16673;SDS011;8450;52.654;10.326;2022-08-11T13:32:52;3.22;;;2.92;;
16673;SDS011;8450;52.654;10.326;2022-08-11T13:35:18;4.70;;;3.10;;
16673;SDS011;8450;52.654;10.326;2022-08-11T13:37:44;3.88;;;3.30;;
16673;SDS011;8450;52.654;10.326;2022-08-11T13:40:12;4.78;;;3.22;;
16673;SDS011;8450;52.654;10.326;2022-08-11T13:42:40;2.97;;;2.67;;
16673;SDS011;8450;52.654;10.326;2022-08-11T13:45:08;3.30;;;3.00;;
16673;SDS011;8450;52.654;10.326;2022-08-11T13:47:34;3.70;;;3.10;;
16673;SDS011;8450;52.654;10.326;2022-08-11T13:50:03;6.28;;;2.97;;
16673;SDS011;8450;52.654;10.326;2022-08-11T13:52:30;3.30;;;3.00;;
16673;SDS011;8450;52.654;10.326;2022-08-11T13:54:57;4.05;;;2.97;;
16673;SDS011;8450;52.654;10.326;2022-08-11T13:57:23;6.28;;;2.90;;
16673;SDS011;8450;52.654;10.326;2022-08-11T13:59:53;3.00;;;2.70;;
16673;SDS011;8450;52.654;10.326;2022-08-11T14:02:22;6.40;;;2.85;;
16673;SDS011;8450;52.654;10.326;2022-08-11T14:04:53;9.48;;;3.20;;
16673;SDS011;8450;52.654;10.326;2022-08-11T14:07:23;3.67;;;3.22;;
16673;SDS011;8450;52.654;10.326;2022-08-11T14:09:58;5.45;;;3.33;;
16673;SDS011;8450;52.654;10.326;2022-08-11T14:12:29;3.97;;;3.10;;
16673;SDS011;8450;52.654;10.326;2022-08-11T14:15:20;3.50;;;3.20;;
16673;SDS011;8450;52.654;10.326;2022-08-11T14:17:50;4.65;;;3.47;;
16673;SDS011;8450;52.654;10.326;2022-08-11T14:20:20;3.55;;;2.97;;
16673;SDS011;8450;52.654;10.326;2022-08-11T14:22:46;4.03;;;2.80;;
16673;SDS011;8450;52.654;10.326;2022-08-11T14:25:15;4.07;;;2.83;;
16673;SDS011;8450;52.654;10.326;2022-08-11T14:27:42;8.60;;;2.83;;
16673;SDS011;8450;52.654;10.326;2022-08-11T14:30:08;3.92;;;2.63;;
16673;SDS011;8450;52.654;10.326;2022-08-11T14:32:54;3.08;;;2.83;;
16673;SDS011;8450;52.654;10.326;2022-08-11T14:35:21;4.15;;;2.65;;
16673;SDS011;8450;52.654;10.326;2022-08-11T14:37:47;2.80;;;2.58;;
16673;SDS011;8450;52.654;10.326;2022-08-11T14:40:13;4.32;;;2.92;;
16673;SDS011;8450;52.654;10.326;2022-08-11T14:43:00;3.38;;;2.90;;
16673;SDS011;8450;52.654;10.326;2022-08-11T14:45:52;6.40;;;2.70;;
16673;SDS011;8450;52.654;10.326;2022-08-11T14:48:39;3.33;;;3.00;;
16673;SDS011;8450;52.654;10.326;2022-08-11T14:51:06;4.45;;;3.00;;
16673;SDS011;8450;52.654;10.326;2022-08-11T14:53:31;2.78;;;2.58;;
16673;SDS011;8450;52.654;10.326;2022-08-11T14:55:58;4.03;;;2.97;;
16673;SDS011;8450;52.654;10.326;2022-08-11T14:58:43;3.03;;;2.75;;
16673;SDS011;8450;52.654;10.326;2022-08-11T15:01:08;4.15;;;2.97;;
16673;SDS011;8450;52.654;10.326;2022-08-11T15:03:55;3.20;;;3.00;;
16673;SDS011;8450;52.654;10.326;2022-08-11T15:06:24;3.17;;;2.88;;
16673;SDS011;8450;52.654;10.326;2022-08-11T15:08:52;3.25;;;2.70;;
16673;SDS011;8450;52.654;10.326;2022-08-11T15:11:28;3.17;;;2.67;;
16673;SDS011;8450;52.654;10.326;2022-08-11T15:14:13;3.97;;;2.92;;
16673;SDS011;8450;52.654;10.326;2022-08-11T15:17:04;3.72;;;2.70;;
16673;SDS011;8450;52.654;10.326;2022-08-11T15:19:34;6.10;;;3.20;;
16673;SDS011;8450;52.654;10.326;2022-08-11T15:22:22;2.80;;;2.60;;
16673;SDS011;8450;52.654;10.326;2022-08-11T15:25:07;3.00;;;2.70;;
16673;SDS011;8450;52.654;10.326;2022-08-11T15:27:33;3.17;;;2.47;;
16673;SDS011;8450;52.654;10.326;2022-08-11T15:30:19;3.38;;;2.70;;
16673;SDS011;8450;52.654;10.326;2022-08-11T15:33:06;4.90;;;3.10;;
16673;SDS011;8450;52.654;10.326;2022-08-11T15:35:52;4.38;;;2.72;;
16673;SDS011;8450;52.654;10.326;2022-08-11T15:38:39;5.82;;;2.92;;
16673;SDS011;8450;52.654;10.326;2022-08-11T15:41:14;4.55;;;2.80;;
16673;SDS011;8450;52.654;10.326;2022-08-11T15:44:00;8.25;;;3.33;;
16673;SDS011;8450;52.654;10.326;2022-08-11T15:46:48;4.57;;;2.88;;
16673;SDS011;8450;52.654;10.326;2022-08-11T15:49:29;4.03;;;2.95;;
16673;SDS011;8450;52.654;10.326;2022-08-11T15:52:02;6.60;;;3.00;;
16673;SDS011;8450;52.654;10.326;2022-08-11T15:54:32;7.90;;;3.10;;
16673;SDS011;8450;52.654;10.326;2022-08-11T15:57:02;4.93;;;2.90;;
16673;SDS011;8450;52.654;10.326;2022-08-11T15:59:30;4.47;;;3.30;;
16673;SDS011;8450;52.654;10.326;2022-08-11T16:02:17;3.20;;;3.00;;
16673;SDS011;8450;52.654;10.326;2022-08-11T16:05:02;4.55;;;2.78;;
16673;SDS011;8450;52.654;10.326;2022-08-11T16:07:32;6.13;;;3.05;;
16673;SDS011;8450;52.654;10.326;2022-08-11T16:10:04;3.22;;;2.90;;
16673;SDS011;8450;52.654;10.326;2022-08-11T16:12:35;3.40;;;2.78;;
16673;SDS011;8450;52.654;10.326;2022-08-11T16:15:05;3.47;;;2.85;;
16673;SDS011;8450;52.654;10.326;2022-08-11T16:17:54;3.83;;;2.80;;
16673;SDS011;8450;52.654;10.326;2022-08-11T16:20:25;3.03;;;2.83;;
16673;SDS011;8450;52.654;10.326;2022-08-11T16:22:54;3.40;;;3.10;;
16673;SDS011;8450;52.654;10.326;2022-08-11T16:25:23;3.45;;;2.90;;
16673;SDS011;8450;52.654;10.326;2022-08-11T16:27:56;3.55;;;3.22;;
16673;SDS011;8450;52.654;10.326;2022-08-11T16:30:29;3.97;;;2.88;;
16673;SDS011;8450;52.654;10.326;2022-08-11T16:32:56;3.88;;;2.95;;
16673;SDS011;8450;52.654;10.326;2022-08-11T16:35:23;3.63;;;3.33;;
16673;SDS011;8450;52.654;10.326;2022-08-11T16:38:08;2.83;;;2.63;;
16673;SDS011;8450;52.654;10.326;2022-08-11T16:40:54;3.47;;;3.17;;
16673;SDS011;8450;52.654;10.326;2022-08-11T16:43:22;3.30;;;2.90;;
16673;SDS011;8450;52.654;10.326;2022-08-11T16:46:09;5.78;;;2.80;;
16673;SDS011;8450;52.654;10.326;2022-08-11T16:49:03;4.50;;;3.20;;
16673;SDS011;8450;52.654;10.326;2022-08-11T16:51:32;3.60;;;2.72;;
16673;SDS011;8450;52.654;10.326;2022-08-11T16:53:58;3.45;;;3.15;;
16673;SDS011;8450;52.654;10.326;2022-08-11T16:56:29;3.92;;;3.58;;
16673;SDS011;8450;52.654;10.326;2022-08-11T16:58:56;7.32;;;2.97;;
16673;SDS011;8450;52.654;10.326;2022-08-11T17:01:58;4.18;;;3.10;;
16673;SDS011;8450;52.654;10.326;2022-08-11T17:04:30;3.72;;;3.28;;
16673;SDS011;8450;52.654;10.326;2022-08-11T17:07:39;3.25;;;2.90;;
16673;SDS011;8450;52.654;10.326;2022-08-11T17:10:29;3.83;;;2.97;;
16673;SDS011;8450;52.654;10.326;2022-08-11T17:13:18;4.13;;;3.25;;
16673;SDS011;8450;52.654;10.326;2022-08-11T17:16:00;3.85;;;3.08;;
16673;SDS011;8450;52.654;10.326;2022-08-11T17:18:35;3.30;;;3.00;;
16673;SDS011;8450;52.654;10.326;2022-08-11T17:21:05;4.38;;;3.20;;
16673;SDS011;8450;52.654;10.326;2022-08-11T17:23:35;4.13;;;3.10;;
16673;SDS011;8450;52.654;10.326;2022-08-11T17:26:15;4.20;;;3.13;;
16673;SDS011;8450;52.654;10.326;2022-08-11T17:28:52;3.78;;;3.47;;
16673;SDS011;8450;52.654;10.326;2022-08-11T17:31:23;3.20;;;2.90;;
16673;SDS011;8450;52.654;10.326;2022-08-11T17:34:10;7.40;;;3.50;;
16673;SDS011;8450;52.654;10.326;2022-08-11T17:36:56;3.85;;;3.45;;
16673;SDS011;8450;52.654;10.326;2022-08-11T17:39:24;4.53;;;3.25;;
16673;SDS011;8450;52.654;10.326;2022-08-11T17:41:53;4.68;;;2.92;;
16673;SDS011;8450;52.654;10.326;2022-08-11T17:44:38;3.50;;;3.20;;
16673;SDS011;8450;52.654;10.326;2022-08-11T17:47:25;4.18;;;3.25;;
16673;SDS011;8450;52.654;10.326;2022-08-11T17:50:10;4.55;;;3.30;;
16673;SDS011;8450;52.654;10.326;2022-08-11T17:52:37;3.78;;;3.22;;
16673;SDS011;8450;52.654;10.326;2022-08-11T17:55:25;8.25;;;3.08;;
16673;SDS011;8450;52.654;10.326;2022-08-11T17:58:11;5.72;;;3.00;;
16673;SDS011;8450;52.654;10.326;2022-08-11T18:00:57;3.15;;;2.85;;
16673;SDS011;8450;52.654;10.326;2022-08-11T18:03:23;3.97;;;3.10;;
16673;SDS011;8450;52.654;10.326;2022-08-11T18:06:03;3.60;;;3.10;;
16673;SDS011;8450;52.654;10.326;2022-08-11T18:08:32;4.93;;;2.90;;
16673;SDS011;8450;52.654;10.326;2022-08-11T18:11:19;4.75;;;3.30;;
